Flight Track Log - Related Links

Times and Time Zones

All times are in EDT time to prevent confusion due to time zone crossing. See the SWA1521 flight status page for this flight to view local times or setup timezone preferences in your user account.

Time Position Orientation Groundspeed Altitude Reporting Facility
EDT Latitude Longitude Course Direction KTS MPH feet Rate Location/Type
Tue 09:16:57 PM 47.4689 -122.3114 North 156 180 1,300  Level Seattle Center
Tue 09:17:38 PM 47.4967 -122.3103 North 162 186 2,400 2,412 Climbing Seattle Center
Tue 09:18:39 PM 47.5581 -122.3097 360° North 207 238 5,400 3,541 Climbing Seattle Center
Tue 09:19:40 PM 47.5986 -122.2567 41° Northeast 231 266 9,600 3,197 Climbing Seattle Center
Tue 09:20:41 PM 47.5847 -122.1525 101° East 276 318 11,900 2,459 Climbing Seattle Center
Tue 09:21:42 PM 47.4903 -122.1317 172° South 350 403 14,600 2,852 Climbing Seattle Center
Tue 09:22:43 PM 47.3867 -122.1169 175° South 375 432 17,700 2,656 Climbing Seattle Center
Tue 09:23:44 PM 47.2739 -122.1097 178° South 400 460 20,000 2,213 Climbing Seattle Center
Tue 09:24:45 PM 47.1553 -122.0994 177° South 429 494 22,200 2,132 Climbing Seattle Center
Tue 09:25:45 PM 47.0269 -122.0883 177° South 461 531 24,300 1,934 Climbing Seattle Center
Tue 09:26:46 PM 46.8922 -122.0789 177° South 486 559 26,100 1,820 Climbing Seattle Center
Tue 09:27:47 PM 46.7508 -122.0683 177° South 509 586 28,000 1,820 Climbing Seattle Center
Tue 09:28:48 PM 46.6069 -122.0564 177° South 522 601 29,800 1,623 Climbing Seattle Center
Tue 09:29:49 PM 46.4592 -122.0450 177° South 534 615 31,300 1,574 Climbing Seattle Center
Tue 09:30:50 PM 46.3078 -122.0333 177° South 547 629 33,000 1,918 Climbing Seattle Center
Tue 09:31:51 PM 46.1281 -122.0181 177° South 545 627 35,200 1,934 Climbing Seattle Center
Tue 09:32:51 PM 45.9800 -122.0056 177° South 536 617 36,900 843 Climbing Seattle Center
Tue 09:33:52 PM 45.8336 -121.9953 177° South 528 608 36,900  Level Seattle Center
Tue 09:34:53 PM 45.6867 -121.9833 177° South 528 608 36,900  Level Seattle Center
Tue 09:35:54 PM 45.5400 -121.9719 177° South 528 608 36,900  Level Seattle Center
Tue 09:36:55 PM 45.3928 -121.9600 177° South 528 608 36,900 49 Level Seattle Center
Tue 09:37:56 PM 45.2478 -121.9497 177° South 525 604 37,000  Climbing Seattle Center
Tue 09:38:57 PM 45.1017 -121.9381 177° South 524 603 36,900 -50 Descending Seattle Center
Tue 09:39:57 PM 44.9553 -121.9278 177° South 525 604 36,900 50 Level Seattle Center
Tue 09:40:58 PM 44.8142 -121.9150 176° South 511 588 37,000 49 Climbing Seattle Center
Tue 09:41:59 PM 44.6553 -121.9047 177° South 512 589 37,000  Level Seattle Center
Tue 09:43:00 PM 44.5114 -121.8933 177° South 519 597 37,000  Level Seattle Center
Tue 09:44:01 PM 44.3661 -121.8831 177° South 524 603 37,000  Level Seattle Center
Tue 09:45:02 PM 44.2211 -121.8731 177° South 525 604 37,000  Level Seattle Center
Tue 09:46:02 PM 44.0781 -121.8619 177° South 519 597 37,000  Level Seattle Center
Tue 09:47:03 PM 43.9344 -121.8506 177° South 519 597 37,000  Level Seattle Center
Tue 09:48:04 PM 43.7869 -121.8414 177° South 517 595 37,000  Level Seattle Center
Tue 09:49:05 PM 43.6450 -121.8308 177° South 514 592 37,000  Level Seattle Center
Tue 09:50:06 PM 43.5036 -121.8200 177° South 509 586 37,000  Level Seattle Center
Tue 09:51:06 PM 43.3628 -121.8089 177° South 507 583 37,000  Level Seattle Center
Tue 09:52:07 PM 43.2231 -121.7994 177° South 504 580 37,000  Level Seattle Center
Tue 09:53:08 PM 43.0839 -121.7903 177° South 502 578 37,000  Level Seattle Center
Tue 09:54:09 PM 42.9450 -121.7842 178° South 501 577 37,000  Level Seattle Center
Tue 09:55:09 PM 42.8058 -121.7747 177° South 501 577 37,000  Level Seattle Center
Tue 09:56:10 PM 42.6658 -121.7642 177° South 503 579 37,000  Level Seattle Center
Tue 09:57:11 PM 42.5264 -121.7550 177° South 499 574 37,000  Level Seattle Center
Tue 09:58:12 PM 42.3872 -121.7450 177° South 498 573 37,000  Level Seattle Center
Tue 09:59:14 PM 42.2186 -121.7322 177° South 501 577 37,000  Level Seattle Center
Tue 10:00:15 PM 42.0781 -121.7278 179° South 496 571 37,000  Level Seattle Center
Tue 10:01:16 PM 41.9392 -121.7269 180° South 489 563 37,000  Level Seattle Center
Tue 10:02:17 PM 41.8025 -121.7267 180° South 485 558 37,000  Level Seattle Center
Tue 10:03:17 PM 41.6658 -121.7247 179° South 487 560 37,000  Level Seattle Center
Tue 10:04:18 PM 41.5311 -121.7250 180° South 484 557 37,000  Level Seattle Center
Tue 10:05:19 PM 41.3953 -121.7239 180° South 486 559 37,000  Level Seattle Center
Tue 10:06:20 PM 41.2597 -121.7228 180° South 486 559 37,000  Level Seattle Center
Tue 10:07:21 PM 41.1242 -121.7186 179° South 485 558 37,000  Level Seattle Center
Tue 10:08:19 PM 40.9972 -121.7075 176° South 486 559 37,000  Level Oakland Center
Tue 10:09:20 PM 40.8617 -121.6994 177° South 487 560 37,000  Level Oakland Center
Tue 10:10:21 PM 40.7256 -121.6917 178° South 486 559 37,000 -681 Level Oakland Center
Tue 10:12:25 PM 40.4547 -121.6792 178° South 482 555 34,900 -1,654 Descending Seattle Center
Tue 10:13:26 PM 40.3181 -121.6700 177° South 486 559 31,900 -2,628 Descending Seattle Center
Tue 10:14:26 PM 40.1811 -121.6642 178° South 487 560 29,600 -2,150 Descending Seattle Center
Tue 10:15:26 PM 40.0506 -121.6539 177° South 475 547 27,600 -1,983 Descending Oakland Center
Tue 10:16:27 PM 39.9244 -121.6475 178° South 457 526 25,600 -2,131 Descending Oakland Center
Tue 10:18:29 PM 39.6656 -121.6342 178° South 421 484 21,100 -2,250 Descending Oakland Center
Tue 10:19:31 PM 39.5525 -121.6275 177° South 412 474 18,700 -2,195 Descending Oakland Center
Tue 10:20:32 PM 39.4406 -121.6208 177° South 404 465 16,600 -2,016 Descending Oakland Center
Tue 10:21:33 PM 39.3319 -121.6294 184° South 392 451 14,600 -1,770 Descending Oakland Center
Tue 10:22:34 PM 39.2278 -121.6386 184° South 379 436 13,000 -1,721 Descending Oakland Center
Tue 10:23:35 PM 39.1281 -121.6475 184° South 363 418 11,100 -1,377 Descending Oakland Center
Tue 10:24:36 PM 39.0353 -121.6606 186° South 341 392 10,200 -1,180 Descending Oakland Center
Tue 10:25:37 PM 38.9506 -121.6747 187° South 316 364 8,700 -1,770 Descending Oakland Center
Tue 10:26:38 PM 38.8678 -121.6842 185° South 308 354 6,600 -1,918 Descending Oakland Center
Tue 10:27:39 PM 38.7858 -121.6925 185° South 300 345 4,800 -1,525 Descending Oakland Center
Tue 10:28:40 PM 38.7042 -121.6933 180° South 298 343 3,500 -836 Descending Oakland Center
Tue 10:29:41 PM 38.6314 -121.6856 175° South 284 327 3,100 -590 Descending Oakland Center
Tue 10:30:42 PM 38.5700 -121.6375 149° Southeast 239 275 2,300 -818 Descending Oakland Center
Tue 10:31:31 PM 38.5833 -121.6000 66° East 137 158 1,600 -524 Descending Northern Cal TRACON
Tue 10:32:25 PM 38.6167 -121.6000 360° North 106 122 1,400 -450 Descending Northern Cal TRACON
Tue 10:33:31 PM 38.6500 -121.6000 360° North 112 129 700 -571 Descending Northern Cal TRACON
Tue 10:34:31 PM 38.6833 -121.6000 360° North 124 143 200 -500 Descending Northern Cal TRACON

Login

Don't have an account? Register now (free) for customized features, flight alerts, and more!